Time;durP1;ratioP1;P1;durP2;ratioP2;P2;SDS_P1;SDS_P2;PMS_P1;PMS_P2;Temp;Humidity;BMP_temperature;BMP_pressure;BME280_temperature;BME280_humidity;BME280_pressure;Samples;Min_cycle;Max_cycle;Signal;HPM_P1;HPM_P2
2022/06/09 00:01:30;;;;;;;165.30;129.07;;;;;;;;;;5047753;28;20594;-53
2022/06/09 00:04:02;;;;;;;157.68;125.60;;;;;;;;;;5042529;28;20221;-53
2022/06/09 00:06:32;;;;;;;182.65;134.90;;;;;;;;;;5045906;28;20250;-53
2022/06/09 00:09:00;;;;;;;172.00;130.48;;;;;;;;;;5048603;28;20223;-52
2022/06/09 00:11:26;;;;;;;164.15;127.55;;;;;;;;;;5049573;28;20195;-52
2022/06/09 00:13:53;;;;;;;177.07;130.93;;;;;;;;;;5050043;28;20261;-52
2022/06/09 00:16:19;;;;;;;169.98;128.50;;;;;;;;;;5049152;28;20250;-52
2022/06/09 00:18:45;;;;;;;156.18;124.50;;;;;;;;;;5049065;28;20240;-52
2022/06/09 00:21:11;;;;;;;169.27;131.15;;;;;;;;;;5047655;28;20265;-53
2022/06/09 00:23:37;;;;;;;160.95;121.80;;;;;;;;;;5046275;28;20291;-52
2022/06/09 00:26:04;;;;;;;173.30;126.28;;;;;;;;;;5047321;28;20199;-53
2022/06/09 00:28:30;;;;;;;167.05;124.97;;;;;;;;;;5046085;28;20232;-53
2022/06/09 00:30:56;;;;;;;148.07;119.22;;;;;;;;;;5044913;28;20266;-53
2022/06/09 00:33:22;;;;;;;179.13;132.18;;;;;;;;;;5043980;28;20703;-53
2022/06/09 00:35:49;;;;;;;162.60;123.95;;;;;;;;;;5048943;28;20187;-53
2022/06/09 00:38:15;;;;;;;159.57;123.88;;;;;;;;;;5043273;28;20753;-53
2022/06/09 00:40:41;;;;;;;179.07;127.85;;;;;;;;;;5043548;28;20202;-53
2022/06/09 00:43:08;;;;;;;179.23;128.45;;;;;;;;;;5044674;28;20203;-53
2022/06/09 00:45:34;;;;;;;157.02;120.45;;;;;;;;;;5042391;28;20212;-53
2022/06/09 00:48:19;;;;;;;156.13;122.57;;;;;;;;;;5047544;28;20246;-53
2022/06/09 00:50:46;;;;;;;137.20;119.55;;;;;;;;;;5048672;28;20210;-53
2022/06/09 00:53:17;;;;;;;170.40;128.65;;;;;;;;;;5046976;28;20212;-53
2022/06/09 00:55:44;;;;;;;165.05;127.88;;;;;;;;;;5045096;28;20259;-53
2022/06/09 00:58:11;;;;;;;160.23;122.00;;;;;;;;;;5049130;28;20219;-53
2022/06/09 01:00:45;;;;;;;156.57;124.38;;;;;;;;;;5046333;28;20215;-53
2022/06/09 01:03:11;;;;;;;150.52;123.93;;;;;;;;;;5044451;28;20222;-53
2022/06/09 01:05:38;;;;;;;136.20;119.80;;;;;;;;;;5039473;28;20493;-53
2022/06/09 01:08:04;;;;;;;154.90;122.60;;;;;;;;;;5044799;28;20763;-53
2022/06/09 01:10:30;;;;;;;162.48;124.88;;;;;;;;;;5042011;28;20265;-53
2022/06/09 01:12:57;;;;;;;133.52;119.10;;;;;;;;;;5043354;28;20220;-52
2022/06/09 01:15:28;;;;;;;194.75;133.98;;;;;;;;;;5043707;28;20216;-53
2022/06/09 01:18:03;;;;;;;153.85;124.07;;;;;;;;;;5045566;28;20220;-52
2022/06/09 01:20:40;;;;;;;159.55;123.38;;;;;;;;;;5046556;28;20218;-53
2022/06/09 01:23:12;;;;;;;163.40;126.05;;;;;;;;;;5046220;28;20211;-52
2022/06/09 01:25:47;;;;;;;147.30;115.78;;;;;;;;;;5047499;28;20228;-53
2022/06/09 01:28:31;;;;;;;153.77;116.50;;;;;;;;;;5045430;28;20237;-53
2022/06/09 01:31:08;;;;;;;169.10;121.93;;;;;;;;;;5046418;28;20227;-53
2022/06/09 01:33:41;;;;;;;148.57;115.60;;;;;;;;;;5048836;28;20706;-53
2022/06/09 01:36:07;;;;;;;149.95;114.85;;;;;;;;;;5046849;28;20215;-52
2022/06/09 01:38:47;;;;;;;158.15;118.18;;;;;;;;;;5046916;28;20277;-51
2022/06/09 01:41:13;;;;;;;144.90;113.32;;;;;;;;;;5045117;28;20186;-53
2022/06/09 01:43:39;;;;;;;146.20;114.72;;;;;;;;;;5046613;28;20223;-52
2022/06/09 01:46:07;;;;;;;143.05;113.68;;;;;;;;;;5047387;28;20565;-52
2022/06/09 01:48:33;;;;;;;160.15;119.10;;;;;;;;;;5051667;28;20231;-53
2022/06/09 01:51:01;;;;;;;123.55;107.93;;;;;;;;;;5042988;28;20311;-53
2022/06/09 01:53:33;;;;;;;141.02;114.70;;;;;;;;;;5050465;28;20188;-53
2022/06/09 01:56:02;;;;;;;137.57;110.60;;;;;;;;;;5040077;28;20683;-52
2022/06/09 01:58:42;;;;;;;132.82;109.88;;;;;;;;;;5048669;28;20216;-52
2022/06/09 02:01:10;;;;;;;159.95;118.75;;;;;;;;;;5045982;28;20230;-52
2022/06/09 02:03:39;;;;;;;141.38;110.15;;;;;;;;;;5047885;28;20212;-53
2022/06/09 02:06:05;;;;;;;150.32;112.88;;;;;;;;;;5048341;28;20226;-52
2022/06/09 02:08:35;;;;;;;134.07;108.88;;;;;;;;;;5050529;28;20207;-53
2022/06/09 02:11:05;;;;;;;143.77;111.55;;;;;;;;;;5046329;28;20250;-52
2022/06/09 02:13:35;;;;;;;111.68;99.82;;;;;;;;;;5034951;28;20298;-53
2022/06/09 02:16:03;;;;;;;136.85;108.13;;;;;;;;;;5044386;28;20531;-53
2022/06/09 02:18:30;;;;;;;134.25;106.78;;;;;;;;;;5034404;28;20219;-53
2022/06/09 02:21:02;;;;;;;126.88;103.43;;;;;;;;;;5047263;28;20207;-53
2022/06/09 02:23:28;;;;;;;128.00;104.45;;;;;;;;;;5039151;28;20677;-53
2022/06/09 02:25:54;;;;;;;147.40;107.15;;;;;;;;;;5047860;28;20218;-53
2022/06/09 02:28:20;;;;;;;128.63;100.85;;;;;;;;;;5046273;28;20211;-53
2022/06/09 02:30:46;;;;;;;122.22;98.65;;;;;;;;;;5046984;28;20734;-52
2022/06/09 02:33:12;;;;;;;124.50;98.47;;;;;;;;;;5052863;28;20227;-52
2022/06/09 02:35:38;;;;;;;133.27;100.25;;;;;;;;;;5045276;28;20278;-52
2022/06/09 02:38:04;;;;;;;110.85;96.47;;;;;;;;;;5047031;28;20242;-53
2022/06/09 02:40:31;;;;;;;134.75;100.80;;;;;;;;;;5043311;28;20228;-52
2022/06/09 02:42:57;;;;;;;111.30;94.40;;;;;;;;;;5047129;28;20212;-53
2022/06/09 02:45:24;;;;;;;150.13;107.22;;;;;;;;;;5046324;28;20215;-53
2022/06/09 02:47:50;;;;;;;153.45;102.97;;;;;;;;;;5041500;28;20203;-53
2022/06/09 02:50:16;;;;;;;143.82;105.50;;;;;;;;;;5043707;28;20204;-53
2022/06/09 02:52:42;;;;;;;124.57;97.63;;;;;;;;;;5049528;28;20520;-53
2022/06/09 02:55:09;;;;;;;150.38;108.75;;;;;;;;;;5042500;28;20208;-53
2022/06/09 02:57:35;;;;;;;113.40;99.20;;;;;;;;;;5050697;28;20219;-53
2022/06/09 03:00:01;;;;;;;126.70;100.93;;;;;;;;;;5043613;28;20215;-53
2022/06/09 03:02:27;;;;;;;137.38;104.93;;;;;;;;;;5041770;28;20251;-53
2022/06/09 03:04:53;;;;;;;132.00;100.22;;;;;;;;;;5040679;28;20215;-53
2022/06/09 03:07:18;;;;;;;128.48;101.72;;;;;;;;;;5040690;28;20298;-53
2022/06/09 03:09:45;;;;;;;108.53;95.05;;;;;;;;;;5047228;28;20219;-53
2022/06/09 03:12:11;;;;;;;101.57;90.28;;;;;;;;;;5044146;28;20214;-53
2022/06/09 03:14:37;;;;;;;132.77;101.72;;;;;;;;;;5042456;28;20547;-53
2022/06/09 03:17:03;;;;;;;142.48;105.47;;;;;;;;;;5038204;28;20265;-53
2022/06/09 03:19:29;;;;;;;122.93;99.40;;;;;;;;;;5042437;28;20310;-53
2022/06/09 03:21:55;;;;;;;100.05;89.30;;;;;;;;;;5043355;28;20693;-52
2022/06/09 03:24:21;;;;;;;115.10;96.75;;;;;;;;;;5046216;28;20214;-52
2022/06/09 03:26:47;;;;;;;127.07;99.35;;;;;;;;;;5045811;28;20584;-53
2022/06/09 03:29:13;;;;;;;120.60;97.72;;;;;;;;;;5047504;28;20195;-53
2022/06/09 03:31:39;;;;;;;111.43;93.75;;;;;;;;;;5044903;28;20212;-52
2022/06/09 03:34:05;;;;;;;128.98;102.43;;;;;;;;;;5044680;28;20261;-52
2022/06/09 03:36:31;;;;;;;106.55;95.03;;;;;;;;;;5049010;28;20239;-53
2022/06/09 03:38:58;;;;;;;102.10;91.35;;;;;;;;;;5041510;28;20288;-53
2022/06/09 03:41:25;;;;;;;146.23;106.43;;;;;;;;;;5041346;28;20203;-52
2022/06/09 03:43:50;;;;;;;139.48;106.30;;;;;;;;;;5029264;28;20203;-53
2022/06/09 03:46:16;;;;;;;113.68;97.78;;;;;;;;;;5040324;28;20573;-52
2022/06/09 03:48:42;;;;;;;130.73;104.00;;;;;;;;;;5040636;28;20605;-52
2022/06/09 03:51:10;;;;;;;146.55;110.18;;;;;;;;;;5044039;28;20226;-52
2022/06/09 03:53:36;;;;;;;134.35;109.65;;;;;;;;;;5044435;28;20219;-51
2022/06/09 03:56:02;;;;;;;115.18;102.50;;;;;;;;;;5045635;28;20250;-53
2022/06/09 03:58:28;;;;;;;138.10;110.57;;;;;;;;;;5047111;28;20254;-53
2022/06/09 04:00:54;;;;;;;148.20;115.30;;;;;;;;;;5045530;28;20692;-53
2022/06/09 04:03:20;;;;;;;156.82;117.25;;;;;;;;;;5045426;28;20216;-52
2022/06/09 04:05:46;;;;;;;148.60;114.03;;;;;;;;;;5040782;28;20184;-52
2022/06/09 04:08:12;;;;;;;139.30;115.13;;;;;;;;;;5044915;28;20196;-52
2022/06/09 04:10:38;;;;;;;134.07;111.90;;;;;;;;;;5039912;28;20229;-53
2022/06/09 04:13:04;;;;;;;141.68;115.60;;;;;;;;;;5035813;28;20200;-53
2022/06/09 04:15:30;;;;;;;158.07;124.18;;;;;;;;;;5042023;28;20214;-53
2022/06/09 04:17:57;;;;;;;161.48;123.35;;;;;;;;;;5045032;28;20587;-53
2022/06/09 04:20:24;;;;;;;150.50;120.93;;;;;;;;;;5044898;28;20714;-53
2022/06/09 04:22:50;;;;;;;141.15;117.88;;;;;;;;;;5038377;28;20215;-53
2022/06/09 04:25:17;;;;;;;180.95;132.02;;;;;;;;;;5046161;28;20215;-53
2022/06/09 04:27:43;;;;;;;141.52;112.80;;;;;;;;;;5045499;28;20247;-53
2022/06/09 04:30:09;;;;;;;173.43;126.20;;;;;;;;;;5040549;28;20223;-53
2022/06/09 04:32:35;;;;;;;147.88;116.80;;;;;;;;;;5038051;28;20183;-53
2022/06/09 04:35:01;;;;;;;159.55;123.35;;;;;;;;;;5041657;28;20215;-52
2022/06/09 04:40:12;;;;;;;172.65;130.57;;;;;;;;;;5040945;28;20223;-53
2022/06/09 04:42:38;;;;;;;165.93;127.93;;;;;;;;;;5038963;28;20856;-53
2022/06/09 04:45:04;;;;;;;161.23;127.30;;;;;;;;;;5048945;28;20219;-53
2022/06/09 04:47:30;;;;;;;161.80;123.57;;;;;;;;;;5045787;28;20200;-53
2022/06/09 04:49:56;;;;;;;180.65;136.82;;;;;;;;;;5040932;28;20680;-53
2022/06/09 04:52:22;;;;;;;151.93;126.22;;;;;;;;;;5044199;28;20241;-53
2022/06/09 04:54:48;;;;;;;172.68;136.93;;;;;;;;;;5050084;28;20265;-52
2022/06/09 04:57:13;;;;;;;181.95;140.68;;;;;;;;;;5044946;28;20219;-53
2022/06/09 04:59:39;;;;;;;180.60;142.13;;;;;;;;;;5044134;28;20582;-52
2022/06/09 05:02:05;;;;;;;158.98;131.35;;;;;;;;;;5054360;28;20246;-53
2022/06/09 05:04:31;;;;;;;170.50;135.75;;;;;;;;;;5038190;28;20215;-53
2022/06/09 05:06:57;;;;;;;163.90;135.23;;;;;;;;;;5042523;28;20588;-53
2022/06/09 05:09:23;;;;;;;177.48;137.98;;;;;;;;;;5042051;28;20223;-53
2022/06/09 05:11:49;;;;;;;176.57;140.20;;;;;;;;;;5048215;28;20184;-53
2022/06/09 05:14:15;;;;;;;190.75;140.45;;;;;;;;;;5046915;28;20517;-53
2022/06/09 05:16:42;;;;;;;144.70;128.07;;;;;;;;;;5034799;28;20223;-53
2022/06/09 05:19:08;;;;;;;162.00;133.68;;;;;;;;;;5054329;28;20234;-53
2022/06/09 05:21:34;;;;;;;158.68;129.88;;;;;;;;;;5038972;28;20218;-54
2022/06/09 05:24:00;;;;;;;177.88;135.27;;;;;;;;;;5033111;28;20208;-54
2022/06/09 05:26:26;;;;;;;170.73;133.07;;;;;;;;;;5033924;28;20177;-54
2022/06/09 05:28:52;;;;;;;189.95;144.15;;;;;;;;;;5032469;28;20290;-54
2022/06/09 05:31:18;;;;;;;163.07;131.30;;;;;;;;;;5030585;28;20236;-54
2022/06/09 05:33:44;;;;;;;196.15;140.95;;;;;;;;;;5032446;28;20208;-54
2022/06/09 05:36:10;;;;;;;134.82;120.05;;;;;;;;;;5031325;28;20236;-54
2022/06/09 05:46:50;;;;;;;157.68;127.50;;;;;;;;;;5048692;28;20218;-54
2022/06/09 05:49:17;;;;;;;173.18;131.45;;;;;;;;;;5056141;28;20215;-54
2022/06/09 05:51:43;;;;;;;193.52;143.38;;;;;;;;;;5051337;28;20611;-54
2022/06/09 05:54:09;;;;;;;176.13;138.52;;;;;;;;;;5052039;28;20704;-53
2022/06/09 05:56:35;;;;;;;150.93;129.80;;;;;;;;;;5044435;28;20212;-54
2022/06/09 05:59:01;;;;;;;172.73;136.73;;;;;;;;;;5044644;28;20242;-54
2022/06/09 06:01:27;;;;;;;175.55;137.25;;;;;;;;;;5043010;28;20653;-53
2022/06/09 06:03:53;;;;;;;199.07;143.73;;;;;;;;;;5050501;28;20239;-52
2022/06/09 06:06:34;;;;;;;169.15;135.82;;;;;;;;;;5048720;28;20671;-53
2022/06/09 06:09:01;;;;;;;206.10;152.18;;;;;;;;;;5048356;28;20219;-53
2022/06/09 06:11:27;;;;;;;198.43;146.60;;;;;;;;;;5033234;28;20175;-53
2022/06/09 06:13:54;;;;;;;187.80;142.32;;;;;;;;;;5050201;28;20227;-52
2022/06/09 06:16:21;;;;;;;176.30;139.45;;;;;;;;;;5050769;28;20290;-54
2022/06/09 06:18:46;;;;;;;195.45;144.43;;;;;;;;;;5044700;28;20211;-55
2022/06/09 06:21:12;;;;;;;222.10;156.20;;;;;;;;;;5048365;28;20273;-53
2022/06/09 06:23:40;;;;;;;204.18;150.45;;;;;;;;;;5038715;28;20556;-54
2022/06/09 06:26:06;;;;;;;161.25;138.40;;;;;;;;;;5045442;28;20671;-54
2022/06/09 06:28:32;;;;;;;200.13;150.77;;;;;;;;;;5044722;28;20294;-53
2022/06/09 06:30:58;;;;;;;184.38;149.48;;;;;;;;;;5043714;28;20699;-54
2022/06/09 06:33:24;;;;;;;217.50;157.60;;;;;;;;;;5047513;28;20220;-54
2022/06/09 06:35:50;;;;;;;227.57;162.27;;;;;;;;;;5048382;28;20207;-54
2022/06/09 06:38:16;;;;;;;191.15;144.60;;;;;;;;;;5044926;28;20220;-54
2022/06/09 06:40:42;;;;;;;201.30;152.32;;;;;;;;;;5051346;28;20227;-55
2022/06/09 06:43:08;;;;;;;191.35;149.38;;;;;;;;;;5050282;28;20714;-54
2022/06/09 06:45:34;;;;;;;188.13;152.32;;;;;;;;;;5050311;28;20270;-54
2022/06/09 06:48:00;;;;;;;197.52;152.52;;;;;;;;;;5049775;28;20222;-54
2022/06/09 06:50:26;;;;;;;195.98;151.43;;;;;;;;;;5044994;28;20644;-53
2022/06/09 06:52:52;;;;;;;197.77;153.98;;;;;;;;;;5050800;28;20226;-53
2022/06/09 06:55:19;;;;;;;171.00;137.35;;;;;;;;;;5051112;28;20223;-53
2022/06/09 06:57:45;;;;;;;194.88;146.07;;;;;;;;;;5050554;28;20215;-53
2022/06/09 07:00:13;;;;;;;202.85;158.52;;;;;;;;;;5050661;28;20830;-53
2022/06/09 07:02:39;;;;;;;196.15;148.13;;;;;;;;;;5050593;28;20168;-52
2022/06/09 07:05:05;;;;;;;201.45;159.40;;;;;;;;;;5050554;28;20167;-53
2022/06/09 07:07:31;;;;;;;225.70;167.48;;;;;;;;;;5050379;28;20226;-53
2022/06/09 07:09:57;;;;;;;189.43;150.23;;;;;;;;;;5051049;28;20227;-53
2022/06/09 07:12:23;;;;;;;167.82;150.23;;;;;;;;;;5051036;28;20208;-53
2022/06/09 07:14:49;;;;;;;223.25;165.57;;;;;;;;;;5051250;28;20596;-53
2022/06/09 07:17:15;;;;;;;187.98;147.27;;;;;;;;;;5051118;28;20207;-53
2022/06/09 07:19:41;;;;;;;189.45;147.38;;;;;;;;;;5051090;28;20269;-53
2022/06/09 07:22:07;;;;;;;190.18;153.50;;;;;;;;;;5051023;28;20230;-53
2022/06/09 07:24:33;;;;;;;207.95;152.57;;;;;;;;;;5033105;28;20247;-53
2022/06/09 07:26:59;;;;;;;171.25;140.55;;;;;;;;;;5051401;28;20749;-53
2022/06/09 07:29:25;;;;;;;194.98;146.88;;;;;;;;;;5051405;28;20204;-53
2022/06/09 07:31:51;;;;;;;182.07;143.25;;;;;;;;;;5051064;28;20503;-53
2022/06/09 07:34:17;;;;;;;202.82;154.52;;;;;;;;;;5050629;28;20219;-53
2022/06/09 07:36:43;;;;;;;178.45;147.50;;;;;;;;;;5050474;28;20672;-53
2022/06/09 07:39:09;;;;;;;198.88;153.60;;;;;;;;;;5051037;28;20301;-53
2022/06/09 07:41:35;;;;;;;200.70;150.13;;;;;;;;;;5050799;28;20211;-53
2022/06/09 07:44:03;;;;;;;207.45;151.50;;;;;;;;;;5051294;28;20179;-53
2022/06/09 07:46:29;;;;;;;206.00;153.65;;;;;;;;;;5050270;28;20229;-53
2022/06/09 07:48:55;;;;;;;177.52;143.25;;;;;;;;;;5050211;28;20223;-53
2022/06/09 07:51:21;;;;;;;167.60;142.32;;;;;;;;;;5050499;28;20215;-53
2022/06/09 07:53:47;;;;;;;195.52;153.20;;;;;;;;;;5050714;28;20195;-53
2022/06/09 07:56:13;;;;;;;197.82;152.80;;;;;;;;;;5051517;28;20182;-53
2022/06/09 07:58:41;;;;;;;195.68;153.68;;;;;;;;;;5050037;28;20302;-53
2022/06/09 08:01:07;;;;;;;196.07;158.20;;;;;;;;;;5050557;28;20278;-53
2022/06/09 08:03:33;;;;;;;204.82;162.20;;;;;;;;;;5050579;28;20246;-53
2022/06/09 08:05:59;;;;;;;224.30;169.75;;;;;;;;;;5049967;28;20222;-53
2022/06/09 08:08:25;;;;;;;218.88;168.93;;;;;;;;;;5050759;28;20191;-54
2022/06/09 08:10:51;;;;;;;224.45;185.48;;;;;;;;;;5050143;28;20227;-53
2022/06/09 08:13:17;;;;;;;218.63;168.45;;;;;;;;;;5050386;28;20295;-53
2022/06/09 08:15:43;;;;;;;216.70;171.55;;;;;;;;;;5050322;28;20743;-53
2022/06/09 08:18:10;;;;;;;193.63;164.50;;;;;;;;;;5049922;28;20531;-53
2022/06/09 08:20:37;;;;;;;196.95;166.32;;;;;;;;;;5050464;28;20703;-54
2022/06/09 08:23:14;;;;;;;200.93;168.48;;;;;;;;;;5050886;28;20266;-53
2022/06/09 08:25:45;;;;;;;184.82;164.15;;;;;;;;;;5050432;28;20222;-53
2022/06/09 08:28:12;;;;;;;219.48;178.40;;;;;;;;;;5049370;28;20223;-53
2022/06/09 08:30:38;;;;;;;225.23;185.95;;;;;;;;;;5050161;28;20631;-53
2022/06/09 08:33:05;;;;;;;204.68;177.95;;;;;;;;;;5050520;28;20234;-53
2022/06/09 08:35:31;;;;;;;196.77;175.77;;;;;;;;;;5050572;28;20176;-53
2022/06/09 08:37:57;;;;;;;232.68;185.07;;;;;;;;;;5049886;28;20231;-53
2022/06/09 08:40:34;;;;;;;228.48;181.88;;;;;;;;;;5050054;28;20219;-53
2022/06/09 08:43:00;;;;;;;202.43;171.43;;;;;;;;;;5050192;28;20268;-53
2022/06/09 08:45:33;;;;;;;230.80;178.48;;;;;;;;;;5049819;28;20258;-53
2022/06/09 08:48:00;;;;;;;200.48;171.35;;;;;;;;;;5050075;28;20257;-53
2022/06/09 08:50:34;;;;;;;223.23;179.25;;;;;;;;;;5050416;28;20195;-53
2022/06/09 08:53:11;;;;;;;217.60;185.65;;;;;;;;;;5050294;28;20229;-53
2022/06/09 08:55:51;;;;;;;220.70;174.48;;;;;;;;;;5050058;28;20269;-53
2022/06/09 08:58:23;;;;;;;212.93;176.77;;;;;;;;;;5049668;28;20230;-53
2022/06/09 09:00:51;;;;;;;206.10;175.93;;;;;;;;;;5049919;28;20215;-53
2022/06/09 09:03:20;;;;;;;235.63;191.48;;;;;;;;;;5049652;28;20695;-53
2022/06/09 09:05:56;;;;;;;198.60;171.80;;;;;;;;;;5049894;28;20183;-53
2022/06/09 09:08:23;;;;;;;208.40;173.30;;;;;;;;;;5050393;28;20190;-53
2022/06/09 09:10:57;;;;;;;221.98;178.38;;;;;;;;;;5049909;28;20232;-53
2022/06/09 09:13:26;;;;;;;239.95;190.32;;;;;;;;;;5049832;28;20203;-53
2022/06/09 09:15:57;;;;;;;220.68;179.65;;;;;;;;;;5049840;28;20216;-53
2022/06/09 09:18:44;;;;;;;226.07;182.43;;;;;;;;;;5049422;28;20770;-53
2022/06/09 09:21:19;;;;;;;239.20;186.05;;;;;;;;;;5049611;28;20257;-53
2022/06/09 09:24:04;;;;;;;230.25;183.73;;;;;;;;;;5049978;28;20188;-53
2022/06/09 09:26:44;;;;;;;229.23;181.73;;;;;;;;;;5049982;28;20263;-53
2022/06/09 09:29:10;;;;;;;249.35;195.00;;;;;;;;;;5049719;28;20612;-53
2022/06/09 09:31:54;;;;;;;217.68;188.85;;;;;;;;;;5049379;28;20249;-53
2022/06/09 09:34:22;;;;;;;241.15;192.15;;;;;;;;;;5049686;28;20257;-53
2022/06/09 09:36:50;;;;;;;240.18;190.85;;;;;;;;;;5049222;28;20298;-53
2022/06/09 09:39:24;;;;;;;235.77;203.30;;;;;;;;;;5049905;28;20658;-54
2022/06/09 09:41:56;;;;;;;238.80;202.88;;;;;;;;;;5053616;28;20607;-53
2022/06/09 09:44:23;;;;;;;240.88;194.73;;;;;;;;;;5053770;28;20168;-53
2022/06/09 09:46:51;;;;;;;239.55;199.77;;;;;;;;;;5052943;28;20230;-53
2022/06/09 09:49:20;;;;;;;225.10;190.95;;;;;;;;;;5052701;28;20569;-53
2022/06/09 09:51:46;;;;;;;247.82;203.25;;;;;;;;;;5052907;28;20684;-53
2022/06/09 09:54:19;;;;;;;255.43;211.27;;;;;;;;;;5052751;28;20260;-53
2022/06/09 09:56:45;;;;;;;254.50;207.98;;;;;;;;;;5053233;28;20200;-54
2022/06/09 09:59:21;;;;;;;270.40;219.00;;;;;;;;;;5053381;28;20245;-53
2022/06/09 10:10:09;;;;;;;243.20;208.50;;;;;;;;;;5052887;28;20241;-54
2022/06/09 10:12:35;;;;;;;238.45;196.35;;;;;;;;;;5052501;28;20215;-53
2022/06/09 10:15:10;;;;;;;232.90;201.45;;;;;;;;;;5052717;28;20207;-53
2022/06/09 10:17:37;;;;;;;245.02;209.35;;;;;;;;;;5052399;28;20213;-53
2022/06/09 10:20:15;;;;;;;250.10;211.50;;;;;;;;;;5053164;28;20176;-53
2022/06/09 10:22:43;;;;;;;243.02;208.00;;;;;;;;;;5052535;28;20219;-53
2022/06/09 10:25:23;;;;;;;261.35;217.80;;;;;;;;;;5052548;28;20688;-54
2022/06/09 10:27:52;;;;;;;263.35;216.07;;;;;;;;;;5052311;28;20216;-53
2022/06/09 10:30:27;;;;;;;266.13;223.20;;;;;;;;;;5052705;28;20409;-53
2022/06/09 10:32:58;;;;;;;252.10;211.32;;;;;;;;;;5052391;28;20223;-53
2022/06/09 10:35:42;;;;;;;260.30;219.82;;;;;;;;;;5052361;28;20277;-53
2022/06/09 10:38:14;;;;;;;251.18;209.65;;;;;;;;;;5053283;28;20226;-54
2022/06/09 10:40:42;;;;;;;265.73;214.68;;;;;;;;;;5052119;28;20215;-53
2022/06/09 10:43:26;;;;;;;259.73;213.15;;;;;;;;;;5052132;28;20575;-54
2022/06/09 10:46:10;;;;;;;249.70;212.43;;;;;;;;;;5051763;28;20690;-54
2022/06/09 10:57:13;;;;;;;255.48;203.02;;;;;;;;;;5051380;28;20574;-53
2022/06/09 10:59:59;;;;;;;267.17;219.02;;;;;;;;;;5050876;28;20176;-53
2022/06/09 11:02:27;;;;;;;308.85;239.88;;;;;;;;;;5050560;28;20179;-52
2022/06/09 11:04:54;;;;;;;270.80;210.73;;;;;;;;;;5050559;28;20770;-54
2022/06/09 11:07:28;;;;;;;247.63;193.75;;;;;;;;;;5050452;28;20219;-58
2022/06/09 11:10:03;;;;;;;264.33;212.80;;;;;;;;;;5050509;28;20230;-58
2022/06/09 11:12:48;;;;;;;282.52;219.65;;;;;;;;;;5048805;28;20219;-58
2022/06/09 11:15:23;;;;;;;278.52;218.70;;;;;;;;;;5048771;28;20272;-57
2022/06/09 11:17:52;;;;;;;284.67;225.27;;;;;;;;;;5048027;28;20206;-57
2022/06/09 11:20:24;;;;;;;327.73;246.23;;;;;;;;;;5048566;28;20205;-58
2022/06/09 11:23:13;;;;;;;276.92;218.80;;;;;;;;;;5048926;28;20237;-57
2022/06/09 11:25:46;;;;;;;246.57;207.60;;;;;;;;;;5049571;28;20254;-58
2022/06/09 11:28:18;;;;;;;241.40;210.73;;;;;;;;;;5049433;28;20241;-58
2022/06/09 11:31:03;;;;;;;269.02;207.90;;;;;;;;;;5031569;28;20262;-57
2022/06/09 11:33:40;;;;;;;264.73;209.98;;;;;;;;;;5047534;28;20479;-58
2022/06/09 11:36:19;;;;;;;247.82;203.15;;;;;;;;;;5048410;28;20219;-58
2022/06/09 11:39:04;;;;;;;230.07;205.10;;;;;;;;;;5049988;28;20214;-58
2022/06/09 11:41:45;;;;;;;234.63;191.05;;;;;;;;;;5050442;28;20660;-58
2022/06/09 11:44:25;;;;;;;253.02;205.90;;;;;;;;;;5049684;28;20253;-58
2022/06/09 11:46:53;;;;;;;233.20;200.88;;;;;;;;;;5048711;28;20273;-57
2022/06/09 11:49:22;;;;;;;243.90;201.60;;;;;;;;;;5048881;28;20231;-58
2022/06/09 11:51:48;;;;;;;266.30;207.52;;;;;;;;;;5048850;28;20211;-58
2022/06/09 11:54:32;;;;;;;256.27;207.07;;;;;;;;;;5048579;28;20290;-56
2022/06/09 11:57:19;;;;;;;317.02;228.88;;;;;;;;;;5048060;28;20210;-54
2022/06/09 12:00:23;;;;;;;292.85;223.70;;;;;;;;;;5046211;28;20206;-54
2022/06/09 12:02:53;;;;;;;267.85;212.45;;;;;;;;;;5047307;28;20198;-54
2022/06/09 12:05:22;;;;;;;259.95;208.40;;;;;;;;;;5049053;28;20198;-54
2022/06/09 12:08:07;;;;;;;267.42;212.82;;;;;;;;;;5048414;28;20218;-54
2022/06/09 12:10:56;;;;;;;246.10;197.93;;;;;;;;;;5048417;28;20771;-54
2022/06/09 12:13:24;;;;;;;250.55;205.43;;;;;;;;;;5038201;28;20207;-54
2022/06/09 12:15:53;;;;;;;221.40;189.80;;;;;;;;;;5048355;28;20332;-54
2022/06/09 12:18:19;;;;;;;231.27;191.02;;;;;;;;;;5048215;28;20215;-54
2022/06/09 12:20:48;;;;;;;244.60;196.65;;;;;;;;;;5048708;28;20537;-54
2022/06/09 12:23:26;;;;;;;220.52;183.48;;;;;;;;;;5045679;28;20195;-54
2022/06/09 12:26:19;;;;;;;243.25;195.60;;;;;;;;;;5048493;28;20303;-54
2022/06/09 12:28:52;;;;;;;263.33;204.40;;;;;;;;;;5048136;28;20249;-54
2022/06/09 12:31:20;;;;;;;239.20;199.20;;;;;;;;;;5048318;28;20227;-54
2022/06/09 12:33:55;;;;;;;272.60;215.02;;;;;;;;;;5045866;28;20619;-54
2022/06/09 12:36:33;;;;;;;239.07;192.90;;;;;;;;;;5048259;28;20218;-54
2022/06/09 12:39:00;;;;;;;261.27;213.90;;;;;;;;;;5048296;28;20302;-54
2022/06/09 12:41:35;;;;;;;269.50;216.52;;;;;;;;;;5048897;28;20174;-54
2022/06/09 12:44:28;;;;;;;262.50;211.95;;;;;;;;;;5048119;28;20690;-54
2022/06/09 12:46:57;;;;;;;275.40;219.75;;;;;;;;;;5044237;28;20216;-54
2022/06/09 12:49:29;;;;;;;273.10;219.02;;;;;;;;;;5047558;28;20575;-54
2022/06/09 12:51:55;;;;;;;258.10;206.45;;;;;;;;;;5048058;28;20233;-54
2022/06/09 12:54:30;;;;;;;298.15;223.18;;;;;;;;;;5047969;28;20321;-54
2022/06/09 12:57:04;;;;;;;267.95;208.25;;;;;;;;;;5047676;28;20217;-54
2022/06/09 12:59:34;;;;;;;246.75;190.02;;;;;;;;;;5048746;28;20211;-53
2022/06/09 13:02:23;;;;;;;266.10;206.18;;;;;;;;;;5048099;28;20204;-53
2022/06/09 13:04:58;;;;;;;257.00;198.77;;;;;;;;;;5035243;28;20226;-53
2022/06/09 13:07:31;;;;;;;272.83;209.18;;;;;;;;;;5047139;28;20210;-53
2022/06/09 13:10:18;;;;;;;253.40;201.80;;;;;;;;;;5047886;28;20741;-53
2022/06/09 13:12:53;;;;;;;264.13;205.32;;;;;;;;;;5047692;28;20212;-53
2022/06/09 13:15:38;;;;;;;258.23;202.88;;;;;;;;;;5050968;28;20213;-53
2022/06/09 13:18:13;;;;;;;274.98;206.73;;;;;;;;;;5051490;28;20297;-53
2022/06/09 13:20:41;;;;;;;245.18;193.32;;;;;;;;;;5051520;28;20179;-53
2022/06/09 13:23:07;;;;;;;235.23;187.93;;;;;;;;;;5051867;28;20171;-53
2022/06/09 13:25:34;;;;;;;244.60;189.65;;;;;;;;;;5051009;28;20215;-53
2022/06/09 13:28:00;;;;;;;265.00;204.65;;;;;;;;;;5051216;28;20461;-53
2022/06/09 13:30:47;;;;;;;272.48;213.88;;;;;;;;;;5050960;28;20226;-53
2022/06/09 13:33:34;;;;;;;260.77;217.82;;;;;;;;;;5051113;28;20234;-53
2022/06/09 13:36:15;;;;;;;278.08;219.30;;;;;;;;;;5051014;28;20225;-53
2022/06/09 13:38:41;;;;;;;273.20;213.35;;;;;;;;;;5050637;28;20215;-53
2022/06/09 13:41:12;;;;;;;300.92;233.18;;;;;;;;;;5051610;28;20646;-54
2022/06/09 13:43:44;;;;;;;289.50;223.63;;;;;;;;;;5051055;28;20702;-53
2022/06/09 13:46:10;;;;;;;246.38;216.80;;;;;;;;;;5051261;28;20216;-53
2022/06/09 13:49:08;;;;;;;277.20;226.30;;;;;;;;;;5050788;28;20269;-53
2022/06/09 13:51:36;;;;;;;276.15;231.38;;;;;;;;;;5006142;28;20227;-53
2022/06/09 13:54:08;;;;;;;277.95;224.50;;;;;;;;;;5050247;28;20217;-53
2022/06/09 13:56:34;;;;;;;273.38;227.68;;;;;;;;;;5050304;28;20163;-53
2022/06/09 13:59:00;;;;;;;290.45;232.65;;;;;;;;;;5050872;28;20207;-53
2022/06/09 14:01:26;;;;;;;278.65;224.02;;;;;;;;;;5050251;28;20227;-53
2022/06/09 14:03:53;;;;;;;287.83;232.07;;;;;;;;;;5050539;28;20219;-53
2022/06/09 14:06:21;;;;;;;291.90;225.95;;;;;;;;;;5050071;28;20219;-54
2022/06/09 14:08:49;;;;;;;283.75;235.63;;;;;;;;;;5050267;28;20218;-54
2022/06/09 14:11:17;;;;;;;287.05;230.93;;;;;;;;;;5050670;28;20199;-54
2022/06/09 14:13:43;;;;;;;294.63;238.02;;;;;;;;;;5050267;28;20238;-54
2022/06/09 14:16:10;;;;;;;292.38;234.90;;;;;;;;;;5050258;28;20211;-54
2022/06/09 14:18:37;;;;;;;294.98;255.27;;;;;;;;;;5049911;28;20307;-55
2022/06/09 14:21:02;;;;;;;283.08;249.40;;;;;;;;;;5050515;28;20207;-54
2022/06/09 14:23:31;;;;;;;295.98;254.88;;;;;;;;;;5050331;28;20611;-55
2022/06/09 14:25:58;;;;;;;317.58;266.63;;;;;;;;;;5049608;28;20251;-54
2022/06/09 14:28:25;;;;;;;336.90;274.40;;;;;;;;;;5049828;28;20219;-54
2022/06/09 14:30:51;;;;;;;322.75;264.52;;;;;;;;;;5050104;28;20273;-54
2022/06/09 14:33:17;;;;;;;318.60;271.85;;;;;;;;;;5049940;28;20219;-54
2022/06/09 14:35:43;;;;;;;340.67;282.60;;;;;;;;;;5049770;28;20202;-54